Hulbert, Michigan
Current Conditions -  °F | °C
As of 11:34 AM on Wednesday 22 Oct 2014 (Local Time) from KERY Reporting Station
Clear Clear  
Wind Chill: 41°   Ceiling: Unl
Heat Index: 41°   Visibility: 10mi
Dew Point: 35°   Wind: 3mph
Humidity: 80%   Direction: 130°SE
Pressure: 30.4"   Gusts: NA
Location:  46.35°N, 85.15°W
Report Text: KERY 221534Z AUTO 13003KT 10SM CLR 05/02 A3040 RMK AO2 T00500018
Loading
Personal Weather Stations






























Interactive Weather Map
Tropical Storm Tracking
New forecast layout! Learn more

10-Day Weather Forecast

Advertisements
Track Severe Weather on mobile